createdAt,value
2022-08-28T00:01:59.907Z,86.71
2022-08-28T00:04:26.863Z,86.67
2022-08-28T00:06:53.283Z,86.51
2022-08-28T00:09:19.817Z,86.93
2022-08-28T00:11:47.133Z,87.16
2022-08-28T00:14:14.450Z,86.97
2022-08-28T00:21:34.131Z,87.63
2022-08-28T00:24:00.741Z,87.82
2022-08-28T00:26:45.580Z,88.10
2022-08-28T00:29:12.205Z,88.47
2022-08-28T00:34:08.278Z,88.86
2022-08-28T00:36:34.967Z,89.07
2022-08-28T00:39:01.424Z,89.48
2022-08-28T00:41:31.227Z,90.00
2022-08-28T00:46:46.779Z,90.05
2022-08-28T00:49:16.363Z,89.95
2022-08-28T00:52:02.241Z,90.05
2022-08-28T00:54:32.957Z,90.19
2022-08-28T00:59:27.718Z,90.62
2022-08-28T01:01:57.018Z,90.79
2022-08-28T01:04:26.986Z,90.88
2022-08-28T01:09:22.982Z,91.45
2022-08-28T01:11:52.994Z,91.72
2022-08-28T01:14:23.043Z,91.76
2022-08-28T01:16:55.362Z,91.89
2022-08-28T01:26:57.088Z,92.66
2022-08-28T01:29:23.504Z,92.81
2022-08-28T01:31:49.874Z,93.05
2022-08-28T01:34:16.384Z,93.17
2022-08-28T01:36:42.955Z,93.38
2022-08-28T01:41:42.250Z,93.28
2022-08-28T01:44:09.574Z,93.52
2022-08-28T01:46:36.201Z,93.54
2022-08-28T01:49:02.726Z,93.80
2022-08-28T01:51:29.258Z,93.96
2022-08-28T01:56:29.747Z,94.19
2022-08-28T01:58:56.149Z,94.43
2022-08-28T02:03:49.674Z,94.33
2022-08-28T02:08:43.143Z,94.51
2022-08-28T02:16:06.226Z,95.00
2022-08-28T02:18:32.994Z,95.37
2022-08-28T02:30:44.802Z,96.09
2022-08-28T02:33:11.371Z,96.28
2022-08-28T02:35:40.134Z,96.54
2022-08-28T02:38:06.515Z,96.65
2022-08-28T02:40:33.083Z,96.53
2022-08-28T02:43:00.162Z,97.11
2022-08-28T02:45:26.571Z,97.33
2022-08-28T02:47:54.286Z,97.38
2022-08-28T02:50:21.735Z,97.64
2022-08-28T02:55:17.811Z,97.76
2022-08-28T02:57:45.643Z,98.06
2022-08-28T03:00:15.921Z,98.22
2022-08-28T03:02:42.575Z,98.45
2022-08-28T03:05:10.009Z,98.51
2022-08-28T03:07:36.385Z,98.81
2022-08-28T03:10:04.249Z,99.00
2022-08-28T03:12:30.625Z,99.17
2022-08-28T03:14:57.106Z,99.36
2022-08-28T03:17:23.535Z,99.66
2022-08-28T03:22:17.833Z,100.00
2022-08-28T03:29:37.593Z,100.00
2022-08-28T03:32:04.066Z,100.00
2022-08-28T03:34:30.471Z,100.00
2022-08-28T03:36:56.934Z,100.00
2022-08-28T03:39:23.370Z,100.00
2022-08-28T03:41:49.726Z,100.00
2022-08-28T03:44:16.603Z,100.00
2022-08-28T03:46:42.990Z,100.00
2022-08-28T03:49:09.377Z,100.00
2022-08-28T03:51:35.918Z,100.00
2022-08-28T03:54:04.217Z,100.00
2022-08-28T03:59:00.824Z,100.00
2022-08-28T04:01:28.000Z,100.00
2022-08-28T04:03:54.465Z,100.00
2022-08-28T04:06:21.093Z,100.00
2022-08-28T04:08:48.075Z,100.00
2022-08-28T04:13:41.884Z,100.00
2022-08-28T04:16:11.046Z,100.00
2022-08-28T04:18:40.348Z,100.00
2022-08-28T04:21:16.313Z,100.00
2022-08-28T04:23:44.941Z,100.00
2022-08-28T04:26:17.438Z,100.00
2022-08-28T04:31:10.969Z,100.00
2022-08-28T04:33:38.150Z,100.00
2022-08-28T04:38:44.064Z,100.00
2022-08-28T04:41:13.602Z,100.00
2022-08-28T04:43:40.160Z,100.00
2022-08-28T04:46:08.613Z,100.00
2022-08-28T04:48:36.177Z,100.00
2022-08-28T04:55:58.974Z,100.00
2022-08-28T04:58:27.634Z,100.00
2022-08-28T05:00:54.544Z,100.00
2022-08-28T05:03:21.363Z,100.00
2022-08-28T05:05:51.855Z,100.00
2022-08-28T05:10:46.960Z,100.00
2022-08-28T05:13:15.996Z,100.00
2022-08-28T05:18:13.999Z,100.00
2022-08-28T05:20:43.317Z,100.00
2022-08-28T05:23:10.289Z,100.00
2022-08-28T05:25:39.431Z,100.00
2022-08-28T05:28:12.020Z,100.00
2022-08-28T05:33:07.964Z,100.00
2022-08-28T05:38:01.739Z,100.00
2022-08-28T05:42:54.570Z,100.00
2022-08-28T05:45:22.361Z,100.00
2022-08-28T05:47:48.965Z,100.00
2022-08-28T05:50:15.386Z,100.00
2022-08-28T05:52:43.039Z,100.00
2022-08-28T05:55:12.019Z,100.00
2022-08-28T05:57:42.015Z,100.00
2022-08-28T06:05:07.078Z,100.00
2022-08-28T06:07:33.823Z,100.00
2022-08-28T06:10:00.698Z,100.00
2022-08-28T06:12:27.142Z,100.00
2022-08-28T06:19:50.420Z,100.00
2022-08-28T06:24:43.465Z,100.00
2022-08-28T06:29:36.451Z,100.00
2022-08-28T06:32:04.779Z,100.00
2022-08-28T06:36:57.777Z,100.00
2022-08-28T06:41:50.693Z,100.00
2022-08-28T06:46:52.472Z,100.00
2022-08-28T06:49:19.222Z,100.00
2022-08-28T06:51:45.724Z,100.00
2022-08-28T06:59:05.066Z,100.00
2022-08-28T07:01:34.806Z,100.00
2022-08-28T07:04:12.029Z,100.00
2022-08-28T07:16:30.359Z,98.95
2022-08-28T07:18:57.410Z,98.99
2022-08-28T07:23:50.470Z,98.40
2022-08-28T07:26:20.486Z,97.89
2022-08-28T07:33:45.537Z,96.63
2022-08-28T07:36:22.069Z,96.41
2022-08-28T07:38:57.971Z,96.44
2022-08-28T07:41:28.225Z,96.39
2022-08-28T07:46:40.288Z,95.95
2022-08-28T07:56:29.928Z,95.42
2022-08-28T07:58:58.247Z,95.68
2022-08-28T08:03:55.805Z,93.98
2022-08-28T08:06:33.863Z,88.07
2022-08-28T08:09:01.815Z,86.62
2022-08-28T08:14:04.811Z,85.43
2022-08-28T08:16:35.470Z,84.89
2022-08-28T08:19:02.379Z,84.96
2022-08-28T08:23:58.381Z,84.32
2022-08-28T08:31:19.680Z,81.93
2022-08-28T08:33:48.730Z,82.24
2022-08-28T08:36:17.831Z,81.57
2022-08-28T08:38:44.546Z,80.54
2022-08-28T08:41:23.011Z,80.44
2022-08-28T08:59:04.299Z,80.09
2022-08-28T09:07:00.671Z,79.73
2022-08-28T09:09:32.079Z,78.73
2022-08-28T09:12:03.542Z,77.98
2022-08-28T09:17:19.265Z,78.36
2022-08-28T09:19:46.186Z,77.70
2022-08-28T09:22:13.060Z,77.63
2022-08-28T09:24:41.155Z,77.97
2022-08-28T09:27:21.476Z,78.69
2022-08-28T09:29:57.259Z,78.96
2022-08-28T09:32:41.358Z,78.85
2022-08-28T09:37:36.907Z,75.99
2022-08-28T09:40:21.986Z,74.72
2022-08-28T09:43:23.126Z,74.99
2022-08-28T09:46:21.571Z,74.97
2022-08-28T09:48:53.531Z,73.92
2022-08-28T09:51:22.956Z,73.92
2022-08-28T09:53:52.361Z,74.72
2022-08-28T09:56:35.552Z,74.46
2022-08-28T09:59:06.806Z,72.16
2022-08-28T10:07:08.013Z,71.94
2022-08-28T10:12:22.142Z,70.52
2022-08-28T10:25:38.975Z,69.08
2022-08-28T10:28:18.836Z,68.93
2022-08-28T10:41:38.430Z,66.89
2022-08-28T10:46:41.524Z,67.74
2022-08-28T10:49:22.889Z,67.83
2022-08-28T10:54:18.336Z,67.33
2022-08-28T10:59:25.179Z,67.50
2022-08-28T11:01:52.296Z,67.68
2022-08-28T11:04:25.645Z,67.55
2022-08-28T11:07:15.120Z,66.74
2022-08-28T11:09:48.470Z,67.70
2022-08-28T11:12:18.420Z,66.41
2022-08-28T11:14:48.422Z,65.77
2022-08-28T11:20:13.826Z,66.80
2022-08-28T11:22:52.926Z,65.54
2022-08-28T11:28:11.427Z,64.87
2022-08-28T11:33:08.819Z,64.96
2022-08-28T11:40:31.677Z,65.16
2022-08-28T11:43:16.690Z,64.62
2022-08-28T11:48:28.226Z,62.72
2022-08-28T11:50:58.892Z,62.72
2022-08-28T11:53:54.616Z,63.13
2022-08-28T11:56:35.801Z,62.76
2022-08-28T12:09:39.894Z,62.93
2022-08-28T12:12:13.456Z,62.48
2022-08-28T12:14:39.812Z,62.04
2022-08-28T12:19:55.491Z,61.50
2022-08-28T12:27:38.350Z,60.80
2022-08-28T12:30:05.718Z,59.74
2022-08-28T12:40:28.163Z,59.36
2022-08-28T12:50:32.280Z,58.32
2022-08-28T12:53:03.267Z,58.39
2022-08-28T13:00:33.188Z,57.62
2022-08-28T13:07:56.998Z,56.48
2022-08-28T13:10:29.539Z,56.52
2022-08-28T13:15:53.463Z,55.59
2022-08-28T13:21:33.046Z,56.04
2022-08-28T13:24:21.042Z,56.55
2022-08-28T13:34:29.123Z,55.63
2022-08-28T13:39:29.214Z,56.22
2022-08-28T13:41:59.242Z,56.46
2022-08-28T13:47:08.871Z,56.13
2022-08-28T13:49:35.550Z,55.31
2022-08-28T13:52:05.022Z,55.86
2022-08-28T13:54:31.810Z,56.11
2022-08-28T14:07:07.946Z,56.35
2022-08-28T14:12:03.348Z,56.09
2022-08-28T14:19:23.535Z,55.35
2022-08-28T14:21:50.225Z,54.78
2022-08-28T14:24:17.622Z,53.98
2022-08-28T14:31:41.040Z,53.69
2022-08-28T14:34:09.306Z,53.58
2022-08-28T14:41:34.481Z,52.64
2022-08-28T14:49:00.453Z,54.25
2022-08-28T14:51:27.743Z,54.50
2022-08-28T14:56:22.225Z,55.18
2022-08-28T15:01:40.203Z,54.14
2022-08-28T15:04:10.961Z,53.45
2022-08-28T15:09:05.093Z,52.92
2022-08-28T15:11:31.592Z,53.45
2022-08-28T15:21:28.647Z,52.48
2022-08-28T15:26:25.658Z,52.19
2022-08-28T15:28:55.675Z,52.75
2022-08-28T15:31:24.457Z,52.70
2022-08-28T15:41:31.674Z,51.05
2022-08-28T15:44:00.763Z,51.79
2022-08-28T15:48:55.816Z,52.38
2022-08-28T15:53:52.833Z,52.05
2022-08-28T15:56:19.992Z,51.53
2022-08-28T15:58:46.664Z,51.86
2022-08-28T16:01:13.640Z,52.22
2022-08-28T16:03:40.186Z,51.68
2022-08-28T16:06:16.376Z,51.87
2022-08-28T16:11:14.073Z,51.88
2022-08-28T16:13:40.780Z,51.93
2022-08-28T16:16:07.272Z,52.04
2022-08-28T16:18:33.699Z,51.79
2022-08-28T16:21:04.532Z,52.38
2022-08-28T16:26:00.156Z,51.55
2022-08-28T16:30:54.007Z,50.72
2022-08-28T16:33:22.130Z,50.42
2022-08-28T16:35:54.937Z,50.33
2022-08-28T16:38:23.374Z,50.19
2022-08-28T16:40:49.865Z,50.44
2022-08-28T16:43:16.541Z,50.93
2022-08-28T16:45:44.968Z,51.76
2022-08-28T16:48:12.669Z,51.77
2022-08-28T16:53:10.070Z,52.38
2022-08-28T16:58:04.372Z,51.99
2022-08-28T17:00:31.328Z,51.53
2022-08-28T17:02:57.828Z,52.21
2022-08-28T17:10:21.781Z,51.42
2022-08-28T17:12:48.483Z,51.16
2022-08-28T17:17:42.078Z,52.13
2022-08-28T17:22:56.691Z,52.47
2022-08-28T17:25:24.452Z,52.62
2022-08-28T17:27:51.330Z,52.23
2022-08-28T17:32:46.102Z,51.76
2022-08-28T17:35:12.779Z,51.97
2022-08-28T17:42:36.444Z,52.52
2022-08-28T17:47:32.513Z,52.94
2022-08-28T17:52:26.238Z,53.18
2022-08-28T17:54:53.284Z,53.57
2022-08-28T17:57:19.834Z,54.08
2022-08-28T17:59:46.290Z,54.36
2022-08-28T18:04:43.805Z,54.64
2022-08-28T18:09:36.703Z,55.12
2022-08-28T18:12:03.650Z,55.70
2022-08-28T18:14:31.127Z,56.27
2022-08-28T18:16:57.695Z,56.19
2022-08-28T18:19:24.226Z,56.30
2022-08-28T18:21:50.735Z,55.96
2022-08-28T18:29:11.012Z,57.12
2022-08-28T18:31:37.573Z,56.79
2022-08-28T18:34:04.143Z,56.77
2022-08-28T18:38:57.771Z,57.86
2022-08-28T18:44:11.949Z,58.25
2022-08-28T18:46:38.460Z,58.71
2022-08-28T18:49:04.979Z,58.73
2022-08-28T18:56:30.355Z,59.19
2022-08-28T18:58:59.322Z,59.04
2022-08-28T19:01:26.010Z,59.58
2022-08-28T19:03:54.119Z,59.72
2022-08-28T19:06:20.741Z,60.17
2022-08-28T19:08:47.254Z,60.05
2022-08-28T19:18:35.054Z,61.12
2022-08-28T19:26:02.550Z,62.08
2022-08-28T19:28:29.030Z,62.53
2022-08-28T19:30:55.522Z,62.31
2022-08-28T19:33:22.038Z,63.05
2022-08-28T19:35:48.575Z,63.53
2022-08-28T19:38:15.282Z,63.60
2022-08-28T19:40:42.005Z,63.66
2022-08-28T19:43:08.585Z,64.13
2022-08-28T19:45:41.897Z,64.37
2022-08-28T19:48:08.503Z,64.97
2022-08-28T19:50:34.910Z,65.24
2022-08-28T19:55:28.591Z,65.67
2022-08-28T19:57:55.057Z,66.46
2022-08-28T20:00:24.680Z,67.12
2022-08-28T20:02:52.265Z,67.79
2022-08-28T20:05:20.039Z,67.92
2022-08-28T20:07:46.595Z,68.80
2022-08-28T20:12:39.910Z,69.92
2022-08-28T20:15:16.104Z,70.97
2022-08-28T20:17:43.700Z,71.55
2022-08-28T20:20:11.662Z,72.83
2022-08-28T20:22:39.233Z,73.31
2022-08-28T20:25:07.314Z,73.72
2022-08-28T20:27:33.875Z,74.10
2022-08-28T20:30:09.330Z,74.71
2022-08-28T20:32:40.290Z,75.11
2022-08-28T20:35:09.793Z,75.40
2022-08-28T20:37:45.088Z,75.77
2022-08-28T20:40:18.021Z,76.25
2022-08-28T20:42:45.785Z,76.41
2022-08-28T20:45:13.990Z,76.79
2022-08-28T20:47:40.594Z,76.92
2022-08-28T20:50:07.579Z,77.17
2022-08-28T20:52:34.067Z,77.46
2022-08-28T20:59:54.046Z,77.78
2022-08-28T21:02:24.606Z,77.95
2022-08-28T21:04:52.467Z,78.39
2022-08-28T21:07:21.497Z,78.52
2022-08-28T21:10:05.318Z,78.82
2022-08-28T21:15:01.019Z,79.06
2022-08-28T21:17:29.711Z,79.19
2022-08-28T21:20:09.112Z,79.29
2022-08-28T21:22:37.174Z,79.53
2022-08-28T21:25:07.013Z,79.55
2022-08-28T21:27:33.525Z,79.71
2022-08-28T21:30:00.811Z,79.84
2022-08-28T21:32:29.309Z,79.94
2022-08-28T21:34:56.019Z,80.29
2022-08-28T21:37:23.180Z,80.45
2022-08-28T21:39:49.599Z,80.49
2022-08-28T21:42:16.060Z,80.69
2022-08-28T21:44:45.533Z,81.19
2022-08-28T21:47:18.415Z,81.02
2022-08-28T21:49:47.871Z,81.01
2022-08-28T21:52:14.275Z,81.50
2022-08-28T21:54:40.658Z,81.45
2022-08-28T21:57:07.085Z,81.79
2022-08-28T22:02:04.859Z,82.01
2022-08-28T22:06:57.693Z,82.31
2022-08-28T22:09:24.127Z,82.36
2022-08-28T22:14:16.972Z,82.83
2022-08-28T22:16:44.709Z,83.08
2022-08-28T22:19:11.158Z,83.53
2022-08-28T22:21:56.246Z,83.94
2022-08-28T22:24:23.462Z,84.08
2022-08-28T22:26:50.071Z,84.29
2022-08-28T22:29:24.211Z,84.29
2022-08-28T22:31:50.728Z,84.32
2022-08-28T22:34:17.177Z,84.79
2022-08-28T22:36:43.625Z,84.72
2022-08-28T22:39:10.146Z,85.20
2022-08-28T22:41:37.335Z,85.50
2022-08-28T22:44:04.404Z,85.78
2022-08-28T22:46:30.840Z,86.06
2022-08-28T22:48:57.330Z,86.17
2022-08-28T22:53:50.157Z,86.49
2022-08-28T22:56:17.687Z,87.12
2022-08-28T23:03:40.612Z,88.13
2022-08-28T23:06:07.432Z,88.53
2022-08-28T23:08:34.267Z,88.52
2022-08-28T23:11:01.306Z,88.72
2022-08-28T23:13:28.303Z,88.73
2022-08-28T23:15:54.846Z,88.98
2022-08-28T23:18:21.597Z,89.33
2022-08-28T23:20:50.728Z,89.49
2022-08-28T23:23:18.783Z,89.56
2022-08-28T23:25:45.500Z,89.83
2022-08-28T23:30:39.131Z,90.18
2022-08-28T23:33:08.302Z,90.33
2022-08-28T23:35:35.990Z,90.14
2022-08-28T23:38:03.922Z,90.53
2022-08-28T23:43:00.710Z,90.78
2022-08-28T23:47:54.768Z,91.36
2022-08-28T23:52:50.207Z,91.51
2022-08-28T23:55:19.605Z,91.49
